sensor_id;sensor_type;location;lat;lon;timestamp;temperature;humidity
9662;DHT22;24982;52.344;12.990;2022-11-21T00:02:24;-0.50;99.90
9662;DHT22;24982;52.344;12.990;2022-11-21T00:05:26;-0.40;99.90
9662;DHT22;24982;52.344;12.990;2022-11-21T00:08:29;-0.40;99.90
9662;DHT22;24982;52.344;12.990;2022-11-21T00:11:31;-0.50;99.90
9662;DHT22;24982;52.344;12.990;2022-11-21T00:14:34;-0.50;99.90
9662;DHT22;24982;52.344;12.990;2022-11-21T00:17:36;-0.60;99.90
9662;DHT22;24982;52.344;12.990;2022-11-21T00:20:39;-0.70;99.90
9662;DHT22;24982;52.344;12.990;2022-11-21T00:23:41;-0.60;99.90
9662;DHT22;24982;52.344;12.990;2022-11-21T00:26:43;-0.30;99.90
9662;DHT22;24982;52.344;12.990;2022-11-21T00:29:46;-0.30;99.90
9662;DHT22;24982;52.344;12.990;2022-11-21T00:32:48;-0.20;99.90
9662;DHT22;24982;52.344;12.990;2022-11-21T00:35:50;-0.20;99.90
9662;DHT22;24982;52.344;12.990;2022-11-21T00:38:52;-0.10;99.90
9662;DHT22;24982;52.344;12.990;2022-11-21T00:41:54;0.10;99.90
9662;DHT22;24982;52.344;12.990;2022-11-21T00:44:58;0.20;99.90
9662;DHT22;24982;52.344;12.990;2022-11-21T00:48:00;0.20;99.90
9662;DHT22;24982;52.344;12.990;2022-11-21T00:51:02;0.20;99.90
9662;DHT22;24982;52.344;12.990;2022-11-21T00:54:04;0.30;99.90
9662;DHT22;24982;52.344;12.990;2022-11-21T00:57:05;0.20;99.90
9662;DHT22;24982;52.344;12.990;2022-11-21T01:00:10;0.10;99.90
9662;DHT22;24982;52.344;12.990;2022-11-21T01:03:13;0.10;99.90
9662;DHT22;24982;52.344;12.990;2022-11-21T01:06:15;0.20;99.90
9662;DHT22;24982;52.344;12.990;2022-11-21T01:09:17;0.00;99.90
9662;DHT22;24982;52.344;12.990;2022-11-21T01:12:19;0.20;99.90
9662;DHT22;24982;52.344;12.990;2022-11-21T01:15:22;0.20;99.90
9662;DHT22;24982;52.344;12.990;2022-11-21T01:18:24;0.10;99.90
9662;DHT22;24982;52.344;12.990;2022-11-21T01:21:28;0.20;99.90
9662;DHT22;24982;52.344;12.990;2022-11-21T01:24:30;0.40;99.90
9662;DHT22;24982;52.344;12.990;2022-11-21T01:27:32;0.30;99.90
9662;DHT22;24982;52.344;12.990;2022-11-21T01:30:36;0.10;99.90
9662;DHT22;24982;52.344;12.990;2022-11-21T01:33:38;0.20;99.90
9662;DHT22;24982;52.344;12.990;2022-11-21T01:36:41;0.20;99.90
9662;DHT22;24982;52.344;12.990;2022-11-21T01:39:43;0.10;99.90
9662;DHT22;24982;52.344;12.990;2022-11-21T01:42:57;-0.20;99.90
9662;DHT22;24982;52.344;12.990;2022-11-21T01:46:04;0.30;99.90
9662;DHT22;24982;52.344;12.990;2022-11-21T01:49:09;0.10;99.90
9662;DHT22;24982;52.344;12.990;2022-11-21T01:52:15;0.20;99.90
9662;DHT22;24982;52.344;12.990;2022-11-21T01:55:17;0.20;99.90
9662;DHT22;24982;52.344;12.990;2022-11-21T01:58:20;0.30;99.90
9662;DHT22;24982;52.344;12.990;2022-11-21T02:01:23;0.30;99.90
9662;DHT22;24982;52.344;12.990;2022-11-21T02:04:28;0.20;99.90
9662;DHT22;24982;52.344;12.990;2022-11-21T02:07:34;0.40;99.90
9662;DHT22;24982;52.344;12.990;2022-11-21T02:10:42;0.50;99.90
9662;DHT22;24982;52.344;12.990;2022-11-21T02:13:46;0.50;99.90
9662;DHT22;24982;52.344;12.990;2022-11-21T02:16:50;0.30;99.90
9662;DHT22;24982;52.344;12.990;2022-11-21T02:19:54;0.20;99.90
9662;DHT22;24982;52.344;12.990;2022-11-21T02:23:00;0.20;99.90
9662;DHT22;24982;52.344;12.990;2022-11-21T02:26:06;0.30;99.90
9662;DHT22;24982;52.344;12.990;2022-11-21T02:29:08;0.50;99.90
9662;DHT22;24982;52.344;12.990;2022-11-21T02:32:20;0.50;99.90
9662;DHT22;24982;52.344;12.990;2022-11-21T02:35:22;0.30;99.90
9662;DHT22;24982;52.344;12.990;2022-11-21T02:38:28;0.50;99.90
9662;DHT22;24982;52.344;12.990;2022-11-21T02:41:34;0.50;99.90
9662;DHT22;24982;52.344;12.990;2022-11-21T02:44:44;0.40;99.90
9662;DHT22;24982;52.344;12.990;2022-11-21T02:47:53;0.50;99.90
9662;DHT22;24982;52.344;12.990;2022-11-21T02:50:55;0.50;99.90
9662;DHT22;24982;52.344;12.990;2022-11-21T02:53:57;0.50;99.90
9662;DHT22;24982;52.344;12.990;2022-11-21T02:57:00;0.40;99.90
9662;DHT22;24982;52.344;12.990;2022-11-21T03:00:03;0.50;99.90
9662;DHT22;24982;52.344;12.990;2022-11-21T03:03:05;0.40;99.90
9662;DHT22;24982;52.344;12.990;2022-11-21T03:06:07;0.60;99.90
9662;DHT22;24982;52.344;12.990;2022-11-21T03:09:09;0.50;99.90
9662;DHT22;24982;52.344;12.990;2022-11-21T03:12:13;0.40;99.90
9662;DHT22;24982;52.344;12.990;2022-11-21T03:15:15;0.60;99.90
9662;DHT22;24982;52.344;12.990;2022-11-21T03:18:17;0.50;99.90
9662;DHT22;24982;52.344;12.990;2022-11-21T03:21:19;0.60;99.90
9662;DHT22;24982;52.344;12.990;2022-11-21T03:24:21;0.60;99.90
9662;DHT22;24982;52.344;12.990;2022-11-21T03:27:25;0.50;99.90
9662;DHT22;24982;52.344;12.990;2022-11-21T03:30:27;0.50;99.90
9662;DHT22;24982;52.344;12.990;2022-11-21T03:33:29;0.40;99.90
9662;DHT22;24982;52.344;12.990;2022-11-21T03:36:31;0.50;99.90
9662;DHT22;24982;52.344;12.990;2022-11-21T03:39:33;0.50;99.90
9662;DHT22;24982;52.344;12.990;2022-11-21T03:42:36;0.40;99.90
9662;DHT22;24982;52.344;12.990;2022-11-21T03:45:38;0.40;99.90
9662;DHT22;24982;52.344;12.990;2022-11-21T03:48:40;0.40;99.90
9662;DHT22;24982;52.344;12.990;2022-11-21T03:51:42;0.40;99.90
9662;DHT22;24982;52.344;12.990;2022-11-21T03:54:44;0.90;99.90
9662;DHT22;24982;52.344;12.990;2022-11-21T03:57:48;0.50;99.90
9662;DHT22;24982;52.344;12.990;2022-11-21T04:00:50;0.30;99.90
9662;DHT22;24982;52.344;12.990;2022-11-21T04:03:52;0.40;99.90
9662;DHT22;24982;52.344;12.990;2022-11-21T04:06:54;0.50;99.90
9662;DHT22;24982;52.344;12.990;2022-11-21T04:09:56;1.00;99.90
9662;DHT22;24982;52.344;12.990;2022-11-21T04:12:59;0.30;99.90
9662;DHT22;24982;52.344;12.990;2022-11-21T04:16:01;0.30;99.90
9662;DHT22;24982;52.344;12.990;2022-11-21T04:19:03;0.50;99.90
9662;DHT22;24982;52.344;12.990;2022-11-21T04:22:05;0.30;99.90
9662;DHT22;24982;52.344;12.990;2022-11-21T04:25:07;0.40;99.90
9662;DHT22;24982;52.344;12.990;2022-11-21T04:28:11;0.40;99.90
9662;DHT22;24982;52.344;12.990;2022-11-21T04:31:13;0.20;99.90
9662;DHT22;24982;52.344;12.990;2022-11-21T04:34:15;0.30;99.90
9662;DHT22;24982;52.344;12.990;2022-11-21T04:37:17;0.30;99.90
9662;DHT22;24982;52.344;12.990;2022-11-21T04:40:19;0.30;99.90
9662;DHT22;24982;52.344;12.990;2022-11-21T04:43:23;0.30;99.90
9662;DHT22;24982;52.344;12.990;2022-11-21T04:46:25;0.30;99.90
9662;DHT22;24982;52.344;12.990;2022-11-21T04:49:27;0.20;99.90
9662;DHT22;24982;52.344;12.990;2022-11-21T04:52:29;0.20;99.90
9662;DHT22;24982;52.344;12.990;2022-11-21T04:55:31;0.20;99.90
9662;DHT22;24982;52.344;12.990;2022-11-21T04:58:34;0.20;99.90
9662;DHT22;24982;52.344;12.990;2022-11-21T05:01:37;0.10;99.90
9662;DHT22;24982;52.344;12.990;2022-11-21T05:04:39;0.10;99.90
9662;DHT22;24982;52.344;12.990;2022-11-21T05:07:41;0.00;99.90
9662;DHT22;24982;52.344;12.990;2022-11-21T05:10:43;-0.10;99.90
9662;DHT22;24982;52.344;12.990;2022-11-21T05:14:04;-0.20;99.90
9662;DHT22;24982;52.344;12.990;2022-11-21T05:17:06;-0.30;99.90
9662;DHT22;24982;52.344;12.990;2022-11-21T05:20:09;-0.30;99.90
9662;DHT22;24982;52.344;12.990;2022-11-21T05:23:11;-0.40;99.90
9662;DHT22;24982;52.344;12.990;2022-11-21T05:26:13;-0.40;99.90
9662;DHT22;24982;52.344;12.990;2022-11-21T05:29:16;-0.20;99.90
9662;DHT22;24982;52.344;12.990;2022-11-21T05:32:18;-0.40;99.90
9662;DHT22;24982;52.344;12.990;2022-11-21T05:35:20;-0.20;99.90
9662;DHT22;24982;52.344;12.990;2022-11-21T05:38:22;-0.20;99.90
9662;DHT22;24982;52.344;12.990;2022-11-21T05:41:24;-0.20;99.90
9662;DHT22;24982;52.344;12.990;2022-11-21T05:44:27;-0.10;99.90
9662;DHT22;24982;52.344;12.990;2022-11-21T05:47:28;-0.10;99.90
9662;DHT22;24982;52.344;12.990;2022-11-21T05:50:30;0.00;99.90
9662;DHT22;24982;52.344;12.990;2022-11-21T05:53:33;0.00;99.90
9662;DHT22;24982;52.344;12.990;2022-11-21T05:56:35;0.10;99.90
9662;DHT22;24982;52.344;12.990;2022-11-21T05:59:38;0.10;99.90
9662;DHT22;24982;52.344;12.990;2022-11-21T06:02:40;0.10;99.90
9662;DHT22;24982;52.344;12.990;2022-11-21T06:06:02;0.10;99.90
9662;DHT22;24982;52.344;12.990;2022-11-21T06:09:05;0.20;99.90
9662;DHT22;24982;52.344;12.990;2022-11-21T06:12:07;0.30;99.90
9662;DHT22;24982;52.344;12.990;2022-11-21T06:15:10;0.30;99.90
9662;DHT22;24982;52.344;12.990;2022-11-21T06:18:12;0.40;99.90
9662;DHT22;24982;52.344;12.990;2022-11-21T06:21:16;0.40;99.90
9662;DHT22;24982;52.344;12.990;2022-11-21T06:24:19;0.50;99.90
9662;DHT22;24982;52.344;12.990;2022-11-21T06:27:20;-0.10;99.90
9662;DHT22;24982;52.344;12.990;2022-11-21T06:30:24;0.50;99.90
9662;DHT22;24982;52.344;12.990;2022-11-21T06:33:26;0.40;99.90
9662;DHT22;24982;52.344;12.990;2022-11-21T06:36:28;0.40;99.90
9662;DHT22;24982;52.344;12.990;2022-11-21T06:39:30;0.50;99.90
9662;DHT22;24982;52.344;12.990;2022-11-21T06:42:32;0.50;99.90
9662;DHT22;24982;52.344;12.990;2022-11-21T06:45:35;0.50;99.90
9662;DHT22;24982;52.344;12.990;2022-11-21T06:48:37;0.90;99.90
9662;DHT22;24982;52.344;12.990;2022-11-21T06:51:40;0.50;99.90
9662;DHT22;24982;52.344;12.990;2022-11-21T06:54:42;0.60;99.90
9662;DHT22;24982;52.344;12.990;2022-11-21T06:57:44;0.60;99.90
9662;DHT22;24982;52.344;12.990;2022-11-21T07:00:47;0.70;99.90
9662;DHT22;24982;52.344;12.990;2022-11-21T07:03:49;0.70;99.90
9662;DHT22;24982;52.344;12.990;2022-11-21T07:06:51;0.70;99.90
9662;DHT22;24982;52.344;12.990;2022-11-21T07:09:53;0.70;99.90
9662;DHT22;24982;52.344;12.990;2022-11-21T07:12:56;0.80;99.90
9662;DHT22;24982;52.344;12.990;2022-11-21T07:16:17;0.80;99.90
9662;DHT22;24982;52.344;12.990;2022-11-21T07:19:19;0.80;99.90
9662;DHT22;24982;52.344;12.990;2022-11-21T07:22:21;0.70;99.90
9662;DHT22;24982;52.344;12.990;2022-11-21T07:25:23;0.80;99.90
9662;DHT22;24982;52.344;12.990;2022-11-21T07:28:25;0.70;99.90
9662;DHT22;24982;52.344;12.990;2022-11-21T07:31:28;0.80;99.90
9662;DHT22;24982;52.344;12.990;2022-11-21T07:34:30;0.90;99.90
9662;DHT22;24982;52.344;12.990;2022-11-21T07:37:32;0.90;99.90
9662;DHT22;24982;52.344;12.990;2022-11-21T07:40:37;0.90;99.90
9662;DHT22;24982;52.344;12.990;2022-11-21T07:43:39;1.00;99.90
9662;DHT22;24982;52.344;12.990;2022-11-21T07:46:43;1.00;99.90
9662;DHT22;24982;52.344;12.990;2022-11-21T07:49:45;0.90;99.90
9662;DHT22;24982;52.344;12.990;2022-11-21T07:52:47;0.90;99.90
9662;DHT22;24982;52.344;12.990;2022-11-21T07:55:49;0.90;99.90
9662;DHT22;24982;52.344;12.990;2022-11-21T07:58:51;0.90;99.90
9662;DHT22;24982;52.344;12.990;2022-11-21T08:01:54;0.90;99.90
9662;DHT22;24982;52.344;12.990;2022-11-21T08:04:56;0.80;99.90
9662;DHT22;24982;52.344;12.990;2022-11-21T08:07:58;0.90;99.90
9662;DHT22;24982;52.344;12.990;2022-11-21T08:11:03;0.90;99.90
9662;DHT22;24982;52.344;12.990;2022-11-21T08:14:06;0.90;99.90
9662;DHT22;24982;52.344;12.990;2022-11-21T08:17:09;1.00;99.90
9662;DHT22;24982;52.344;12.990;2022-11-21T08:20:11;1.00;99.90
9662;DHT22;24982;52.344;12.990;2022-11-21T08:23:13;1.10;99.90
9662;DHT22;24982;52.344;12.990;2022-11-21T08:26:15;1.10;99.90
9662;DHT22;24982;52.344;12.990;2022-11-21T08:29:18;1.10;99.90
9662;DHT22;24982;52.344;12.990;2022-11-21T08:32:21;1.30;99.90
9662;DHT22;24982;52.344;12.990;2022-11-21T08:35:23;1.50;99.90
9662;DHT22;24982;52.344;12.990;2022-11-21T08:38:25;1.40;99.90
9662;DHT22;24982;52.344;12.990;2022-11-21T08:41:27;1.30;99.90
9662;DHT22;24982;52.344;12.990;2022-11-21T08:44:46;1.10;99.90
9662;DHT22;24982;52.344;12.990;2022-11-21T08:47:50;1.10;99.90
9662;DHT22;24982;52.344;12.990;2022-11-21T08:50:52;1.00;99.90
9662;DHT22;24982;52.344;12.990;2022-11-21T08:53:54;0.90;99.90
9662;DHT22;24982;52.344;12.990;2022-11-21T08:56:56;0.80;99.90
9662;DHT22;24982;52.344;12.990;2022-11-21T08:59:58;0.80;99.90
9662;DHT22;24982;52.344;12.990;2022-11-21T09:03:04;0.70;99.90
9662;DHT22;24982;52.344;12.990;2022-11-21T09:06:06;0.60;99.90
9662;DHT22;24982;52.344;12.990;2022-11-21T09:09:08;0.60;99.90
9662;DHT22;24982;52.344;12.990;2022-11-21T09:12:10;0.60;99.90
9662;DHT22;24982;52.344;12.990;2022-11-21T09:15:12;0.50;99.90
9662;DHT22;24982;52.344;12.990;2022-11-21T09:18:33;0.50;99.90
9662;DHT22;24982;52.344;12.990;2022-11-21T09:21:35;0.60;99.90
9662;DHT22;24982;52.344;12.990;2022-11-21T09:24:37;0.60;99.90
9662;DHT22;24982;52.344;12.990;2022-11-21T09:27:39;0.70;99.90
9662;DHT22;24982;52.344;12.990;2022-11-21T09:30:41;0.80;99.90
9662;DHT22;24982;52.344;12.990;2022-11-21T09:33:45;0.90;99.90
9662;DHT22;24982;52.344;12.990;2022-11-21T09:36:47;0.90;99.90
9662;DHT22;24982;52.344;12.990;2022-11-21T09:39:49;0.90;99.90
9662;DHT22;24982;52.344;12.990;2022-11-21T09:43:02;0.90;99.90
9662;DHT22;24982;52.344;12.990;2022-11-21T09:46:10;0.90;99.90
9662;DHT22;24982;52.344;12.990;2022-11-21T09:49:15;1.00;99.90
9662;DHT22;24982;52.344;12.990;2022-11-21T09:52:20;1.00;99.90
9662;DHT22;24982;52.344;12.990;2022-11-21T09:55:28;1.10;99.90
9662;DHT22;24982;52.344;12.990;2022-11-21T09:58:38;1.10;99.90
9662;DHT22;24982;52.344;12.990;2022-11-21T10:01:40;1.20;99.90
9662;DHT22;24982;52.344;12.990;2022-11-21T10:04:44;1.20;99.90
9662;DHT22;24982;52.344;12.990;2022-11-21T10:07:48;1.20;99.90
9662;DHT22;24982;52.344;12.990;2022-11-21T10:10:55;1.20;99.90
9662;DHT22;24982;52.344;12.990;2022-11-21T10:14:08;1.20;99.90
9662;DHT22;24982;52.344;12.990;2022-11-21T10:17:21;1.30;99.90
9662;DHT22;24982;52.344;12.990;2022-11-21T10:20:48;1.30;99.90
9662;DHT22;24982;52.344;12.990;2022-11-21T10:24:08;1.40;99.90
9662;DHT22;24982;52.344;12.990;2022-11-21T10:27:15;1.50;99.90
9662;DHT22;24982;52.344;12.990;2022-11-21T10:30:19;1.50;99.90
9662;DHT22;24982;52.344;12.990;2022-11-21T10:33:27;1.50;99.90
9662;DHT22;24982;52.344;12.990;2022-11-21T10:36:35;1.50;99.90
9662;DHT22;24982;52.344;12.990;2022-11-21T10:39:40;1.50;99.90
9662;DHT22;24982;52.344;12.990;2022-11-21T10:42:49;1.50;99.90
9662;DHT22;24982;52.344;12.990;2022-11-21T10:45:52;1.50;99.90
9662;DHT22;24982;52.344;12.990;2022-11-21T10:48:56;1.50;99.90
9662;DHT22;24982;52.344;12.990;2022-11-21T10:52:04;1.60;99.90
9662;DHT22;24982;52.344;12.990;2022-11-21T10:55:10;1.60;99.90
9662;DHT22;24982;52.344;12.990;2022-11-21T10:58:16;1.50;99.90
9662;DHT22;24982;52.344;12.990;2022-11-21T11:01:21;1.40;99.90
9662;DHT22;24982;52.344;12.990;2022-11-21T11:04:25;1.50;99.90
9662;DHT22;24982;52.344;12.990;2022-11-21T11:07:28;1.50;99.90
9662;DHT22;24982;52.344;12.990;2022-11-21T11:10:31;1.50;99.90
9662;DHT22;24982;52.344;12.990;2022-11-21T11:13:55;1.30;99.90
9662;DHT22;24982;52.344;12.990;2022-11-21T11:16:57;1.50;99.90
9662;DHT22;24982;52.344;12.990;2022-11-21T11:20:02;1.70;99.90
9662;DHT22;24982;52.344;12.990;2022-11-21T11:23:25;1.50;99.90
9662;DHT22;24982;52.344;12.990;2022-11-21T11:26:28;1.40;99.90
9662;DHT22;24982;52.344;12.990;2022-11-21T11:29:31;1.70;99.90
9662;DHT22;24982;52.344;12.990;2022-11-21T11:32:38;1.60;99.90
9662;DHT22;24982;52.344;12.990;2022-11-21T11:35:41;1.70;99.90
9662;DHT22;24982;52.344;12.990;2022-11-21T11:38:51;1.60;99.90
9662;DHT22;24982;52.344;12.990;2022-11-21T11:42:14;1.70;99.90
9662;DHT22;24982;52.344;12.990;2022-11-21T11:46:00;1.60;99.90
9662;DHT22;24982;52.344;12.990;2022-11-21T11:49:32;1.50;99.90
9662;DHT22;24982;52.344;12.990;2022-11-21T11:53:04;1.70;99.90
9662;DHT22;24982;52.344;12.990;2022-11-21T11:56:14;1.60;99.90
9662;DHT22;24982;52.344;12.990;2022-11-21T11:59:21;1.60;99.90
9662;DHT22;24982;52.344;12.990;2022-11-21T12:02:31;1.60;99.90
9662;DHT22;24982;52.344;12.990;2022-11-21T12:05:36;1.50;99.90
9662;DHT22;24982;52.344;12.990;2022-11-21T12:08:46;1.40;99.90
9662;DHT22;24982;52.344;12.990;2022-11-21T12:11:56;1.30;99.90
9662;DHT22;24982;52.344;12.990;2022-11-21T12:15:14;1.30;99.90
9662;DHT22;24982;52.344;12.990;2022-11-21T12:18:50;1.40;99.90
9662;DHT22;24982;52.344;12.990;2022-11-21T12:21:53;1.40;99.90
9662;DHT22;24982;52.344;12.990;2022-11-21T12:24:55;1.50;99.90
9662;DHT22;24982;52.344;12.990;2022-11-21T12:27:59;1.60;99.90
9662;DHT22;24982;52.344;12.990;2022-11-21T12:31:08;1.70;99.90
9662;DHT22;24982;52.344;12.990;2022-11-21T12:34:30;1.60;99.90
9662;DHT22;24982;52.344;12.990;2022-11-21T12:37:41;1.60;99.90
9662;DHT22;24982;52.344;12.990;2022-11-21T12:40:51;1.60;99.90
9662;DHT22;24982;52.344;12.990;2022-11-21T12:44:09;1.70;99.90
9662;DHT22;24982;52.344;12.990;2022-11-21T12:47:28;1.80;99.90
9662;DHT22;24982;52.344;12.990;2022-11-21T12:50:57;1.80;99.90
9662;DHT22;24982;52.344;12.990;2022-11-21T12:58:01;1.60;99.90
9662;DHT22;24982;52.344;12.990;2022-11-21T13:01:16;1.70;99.90
9662;DHT22;24982;52.344;12.990;2022-11-21T13:04:22;1.70;99.90
9662;DHT22;24982;52.344;12.990;2022-11-21T13:07:27;1.70;99.90
9662;DHT22;24982;52.344;12.990;2022-11-21T13:10:31;1.70;99.90
9662;DHT22;24982;52.344;12.990;2022-11-21T13:13:35;1.70;99.90
9662;DHT22;24982;52.344;12.990;2022-11-21T13:16:43;1.40;99.90
9662;DHT22;24982;52.344;12.990;2022-11-21T13:19:51;1.60;99.90
9662;DHT22;24982;52.344;12.990;2022-11-21T13:22:55;1.90;99.90
9662;DHT22;24982;52.344;12.990;2022-11-21T13:25:57;1.40;99.90
9662;DHT22;24982;52.344;12.990;2022-11-21T13:29:07;1.40;99.90
9662;DHT22;24982;52.344;12.990;2022-11-21T13:32:36;1.20;99.90
9662;DHT22;24982;52.344;12.990;2022-11-21T13:36:03;1.10;99.90
9662;DHT22;24982;52.344;12.990;2022-11-21T13:39:30;1.00;99.90
9662;DHT22;24982;52.344;12.990;2022-11-21T13:49:57;1.90;99.90
9662;DHT22;24982;52.344;12.990;2022-11-21T13:53:09;2.10;99.90
9662;DHT22;24982;52.344;12.990;2022-11-21T13:56:25;2.20;99.90
9662;DHT22;24982;52.344;12.990;2022-11-21T13:59:41;2.30;99.90
9662;DHT22;24982;52.344;12.990;2022-11-21T14:03:08;2.20;99.90
9662;DHT22;24982;52.344;12.990;2022-11-21T14:06:28;2.10;99.90
9662;DHT22;24982;52.344;12.990;2022-11-21T14:09:34;1.90;99.90
9662;DHT22;24982;52.344;12.990;2022-11-21T14:12:40;1.80;99.90
9662;DHT22;24982;52.344;12.990;2022-11-21T14:15:48;1.70;99.90
9662;DHT22;24982;52.344;12.990;2022-11-21T14:18:54;1.60;99.90
9662;DHT22;24982;52.344;12.990;2022-11-21T14:21:57;1.50;99.90
9662;DHT22;24982;52.344;12.990;2022-11-21T14:25:00;1.50;99.90
9662;DHT22;24982;52.344;12.990;2022-11-21T14:28:10;1.40;99.90
9662;DHT22;24982;52.344;12.990;2022-11-21T14:31:13;1.30;99.90
9662;DHT22;24982;52.344;12.990;2022-11-21T14:34:25;1.30;99.90
9662;DHT22;24982;52.344;12.990;2022-11-21T14:37:28;1.30;99.90
9662;DHT22;24982;52.344;12.990;2022-11-21T14:40:30;1.30;99.90
9662;DHT22;24982;52.344;12.990;2022-11-21T14:43:32;1.30;99.90
9662;DHT22;24982;52.344;12.990;2022-11-21T14:46:36;1.20;99.90
9662;DHT22;24982;52.344;12.990;2022-11-21T14:49:47;1.20;99.90
9662;DHT22;24982;52.344;12.990;2022-11-21T14:52:50;0.90;99.90
9662;DHT22;24982;52.344;12.990;2022-11-21T14:55:56;1.10;99.90
9662;DHT22;24982;52.344;12.990;2022-11-21T14:59:01;0.90;99.90
9662;DHT22;24982;52.344;12.990;2022-11-21T15:02:10;0.90;99.90
9662;DHT22;24982;52.344;12.990;2022-11-21T15:05:14;0.80;99.90
9662;DHT22;24982;52.344;12.990;2022-11-21T15:08:21;0.80;99.90
9662;DHT22;24982;52.344;12.990;2022-11-21T15:11:28;0.70;99.90
9662;DHT22;24982;52.344;12.990;2022-11-21T15:14:34;0.60;99.90
9662;DHT22;24982;52.344;12.990;2022-11-21T15:17:37;0.70;99.90
9662;DHT22;24982;52.344;12.990;2022-11-21T15:20:45;0.60;99.90
9662;DHT22;24982;52.344;12.990;2022-11-21T15:23:48;0.70;99.90
9662;DHT22;24982;52.344;12.990;2022-11-21T15:26:51;0.60;99.90
9662;DHT22;24982;52.344;12.990;2022-11-21T15:30:00;0.50;99.90
9662;DHT22;24982;52.344;12.990;2022-11-21T15:33:13;0.60;99.90
9662;DHT22;24982;52.344;12.990;2022-11-21T15:36:16;0.40;99.90
9662;DHT22;24982;52.344;12.990;2022-11-21T15:39:20;0.50;99.90
9662;DHT22;24982;52.344;12.990;2022-11-21T15:42:43;0.30;99.90
9662;DHT22;24982;52.344;12.990;2022-11-21T15:45:45;0.60;99.90
9662;DHT22;24982;52.344;12.990;2022-11-21T15:48:49;0.30;99.90
9662;DHT22;24982;52.344;12.990;2022-11-21T15:51:53;0.40;99.90
9662;DHT22;24982;52.344;12.990;2022-11-21T15:54:55;0.50;99.90
9662;DHT22;24982;52.344;12.990;2022-11-21T15:57:57;0.20;99.90
9662;DHT22;24982;52.344;12.990;2022-11-21T16:00:59;0.50;99.90
9662;DHT22;24982;52.344;12.990;2022-11-21T16:04:03;0.60;99.90
9662;DHT22;24982;52.344;12.990;2022-11-21T16:07:07;0.60;99.90
9662;DHT22;24982;52.344;12.990;2022-11-21T16:10:09;0.60;99.90
9662;DHT22;24982;52.344;12.990;2022-11-21T16:13:11;0.60;99.90
9662;DHT22;24982;52.344;12.990;2022-11-21T16:16:13;0.50;99.90
9662;DHT22;24982;52.344;12.990;2022-11-21T16:19:15;0.50;99.90
9662;DHT22;24982;52.344;12.990;2022-11-21T16:22:19;0.40;99.90
9662;DHT22;24982;52.344;12.990;2022-11-21T16:25:21;0.30;99.90
9662;DHT22;24982;52.344;12.990;2022-11-21T16:28:23;0.40;99.90
9662;DHT22;24982;52.344;12.990;2022-11-21T16:31:26;0.60;99.90
9662;DHT22;24982;52.344;12.990;2022-11-21T16:34:28;0.30;99.90
9662;DHT22;24982;52.344;12.990;2022-11-21T16:37:33;0.40;99.90
9662;DHT22;24982;52.344;12.990;2022-11-21T16:40:35;0.30;99.90
9662;DHT22;24982;52.344;12.990;2022-11-21T16:43:44;0.30;99.90
9662;DHT22;24982;52.344;12.990;2022-11-21T16:46:47;0.50;99.90
9662;DHT22;24982;52.344;12.990;2022-11-21T16:49:51;0.50;99.90
9662;DHT22;24982;52.344;12.990;2022-11-21T16:52:54;0.40;99.90
9662;DHT22;24982;52.344;12.990;2022-11-21T16:55:59;0.50;99.90
9662;DHT22;24982;52.344;12.990;2022-11-21T16:59:01;0.40;99.90
9662;DHT22;24982;52.344;12.990;2022-11-21T17:02:03;0.40;99.90
